createdAt,value
2022-09-20T00:00:25.214Z,10.00
2022-09-20T00:02:51.755Z,10.00
2022-09-20T00:05:18.440Z,9.90
2022-09-20T00:07:45.230Z,9.90
2022-09-20T00:10:11.900Z,10.00
2022-09-20T00:12:38.479Z,10.00
2022-09-20T00:15:05.482Z,10.00
2022-09-20T00:17:32.120Z,9.90
2022-09-20T00:19:58.647Z,10.00
2022-09-20T00:22:25.204Z,10.00
2022-09-20T00:24:51.742Z,10.00
2022-09-20T00:27:18.293Z,10.00
2022-09-20T00:29:44.816Z,10.00
2022-09-20T00:32:11.385Z,10.00
2022-09-20T00:34:56.718Z,10.00
2022-09-20T00:37:23.415Z,10.00
2022-09-20T00:39:49.942Z,10.00
2022-09-20T00:42:16.504Z,10.00
2022-09-20T00:44:43.068Z,10.00
2022-09-20T00:47:13.261Z,10.00
2022-09-20T00:49:39.788Z,10.00
2022-09-20T00:52:06.331Z,10.00
2022-09-20T00:54:32.882Z,10.00
2022-09-20T00:56:59.423Z,10.10
2022-09-20T00:59:36.143Z,10.10
2022-09-20T01:02:03.741Z,10.10
2022-09-20T01:04:30.307Z,10.00
2022-09-20T01:06:58.064Z,10.00
2022-09-20T01:09:24.587Z,10.00
2022-09-20T01:11:51.133Z,10.00
2022-09-20T01:14:20.077Z,10.00
2022-09-20T01:16:46.699Z,10.00
2022-09-20T01:19:16.428Z,10.10
2022-09-20T01:21:43.614Z,10.10
2022-09-20T01:24:16.395Z,10.10
2022-09-20T01:26:52.275Z,10.00
2022-09-20T01:29:28.084Z,10.10
2022-09-20T01:31:54.848Z,10.00
2022-09-20T01:34:23.903Z,10.00
2022-09-20T01:36:52.133Z,10.00
2022-09-20T01:39:18.603Z,10.00
2022-09-20T01:41:57.992Z,9.90
2022-09-20T01:44:32.680Z,10.00
2022-09-20T01:47:02.852Z,9.90
2022-09-20T01:49:32.378Z,9.90
2022-09-20T01:52:25.225Z,9.90
2022-09-20T01:54:57.933Z,9.90
2022-09-20T01:57:29.112Z,9.90
2022-09-20T01:59:55.589Z,9.90
2022-09-20T02:02:28.242Z,10.00
2022-09-20T02:04:54.780Z,10.00
2022-09-20T02:07:39.902Z,9.90
2022-09-20T02:10:14.293Z,9.90
2022-09-20T02:12:40.817Z,9.90
2022-09-20T02:15:21.842Z,9.80
2022-09-20T02:17:49.577Z,9.80
2022-09-20T02:20:20.349Z,9.90
2022-09-20T02:23:05.525Z,9.90
2022-09-20T02:25:32.034Z,9.80
2022-09-20T02:28:10.770Z,9.80
2022-09-20T02:30:37.251Z,9.80
2022-09-20T02:33:06.898Z,9.80
2022-09-20T02:35:35.978Z,9.70
2022-09-20T02:38:05.612Z,9.80
2022-09-20T02:40:50.745Z,9.80
2022-09-20T02:43:30.488Z,9.80
2022-09-20T02:45:57.003Z,9.80
2022-09-20T02:48:24.819Z,9.90
2022-09-20T02:50:51.287Z,9.90
2022-09-20T02:53:17.909Z,9.80
2022-09-20T02:55:50.522Z,9.90
2022-09-20T02:58:20.171Z,9.80
2022-09-20T03:00:50.554Z,9.80
2022-09-20T03:03:20.252Z,9.80
2022-09-20T03:05:47.427Z,9.70
2022-09-20T03:08:17.057Z,9.60
2022-09-20T03:10:47.427Z,9.50
2022-09-20T03:13:34.203Z,9.40
2022-09-20T03:16:00.712Z,9.40
2022-09-20T03:18:31.947Z,9.30
2022-09-20T03:21:01.955Z,9.40
2022-09-20T03:23:46.827Z,9.40
2022-09-20T03:26:23.445Z,9.40
2022-09-20T03:28:58.199Z,9.40
2022-09-20T03:31:27.859Z,9.40
2022-09-20T03:33:58.216Z,9.40
2022-09-20T03:36:27.476Z,9.40
2022-09-20T03:39:07.993Z,9.40
2022-09-20T03:41:49.559Z,9.30
2022-09-20T03:44:16.213Z,9.30
2022-09-20T03:46:46.546Z,9.30
2022-09-20T03:49:31.863Z,9.30
2022-09-20T03:52:14.198Z,9.40
2022-09-20T03:54:51.724Z,9.40
2022-09-20T03:57:27.714Z,9.40
2022-09-20T04:00:02.808Z,9.50
2022-09-20T04:02:32.407Z,9.40
2022-09-20T04:04:59.616Z,9.50
2022-09-20T04:07:46.680Z,9.40
2022-09-20T04:10:18.527Z,9.40
2022-09-20T04:12:49.860Z,9.40
2022-09-20T04:15:16.327Z,9.50
2022-09-20T04:17:51.991Z,9.50
2022-09-20T04:20:27.815Z,9.50
2022-09-20T04:22:54.369Z,9.50
2022-09-20T04:25:21.492Z,9.50
2022-09-20T04:27:50.041Z,9.50
2022-09-20T04:30:24.106Z,9.40
2022-09-20T04:32:53.683Z,9.40
2022-09-20T04:35:54.192Z,9.30
2022-09-20T04:38:20.902Z,9.20
2022-09-20T04:40:53.523Z,9.20
2022-09-20T04:43:38.887Z,9.20
2022-09-20T04:46:17.664Z,9.20
2022-09-20T04:49:03.211Z,9.30
2022-09-20T04:51:35.824Z,9.30
2022-09-20T04:54:07.687Z,9.30
2022-09-20T04:56:34.150Z,9.30
2022-09-20T04:59:05.802Z,9.40
2022-09-20T05:01:39.831Z,9.30
2022-09-20T05:04:06.353Z,9.40
2022-09-20T05:06:34.165Z,9.40
2022-09-20T05:09:15.667Z,9.40
2022-09-20T05:12:02.463Z,9.40
2022-09-20T05:14:32.669Z,9.50
2022-09-20T05:17:07.089Z,9.50
2022-09-20T05:19:55.723Z,9.50
2022-09-20T05:22:37.129Z,9.50
2022-09-20T05:25:37.653Z,9.50
2022-09-20T05:28:10.337Z,9.50
2022-09-20T05:30:39.412Z,9.50
2022-09-20T05:33:08.948Z,9.50
2022-09-20T05:35:54.497Z,9.60
2022-09-20T05:41:09.284Z,9.60
2022-09-20T05:43:42.948Z,9.60
2022-09-20T05:46:28.283Z,9.60
2022-09-20T05:48:56.339Z,9.60
2022-09-20T05:51:25.877Z,9.60
2022-09-20T05:54:06.925Z,9.60
2022-09-20T05:56:35.579Z,9.60
2022-09-20T05:59:12.733Z,9.60
2022-09-20T06:01:40.367Z,9.60
2022-09-20T06:04:08.103Z,9.60
2022-09-20T06:06:54.972Z,9.70
2022-09-20T06:09:21.512Z,9.70
2022-09-20T06:12:00.867Z,9.70
2022-09-20T06:14:39.251Z,9.70
2022-09-20T06:17:22.454Z,9.70
2022-09-20T06:20:07.923Z,9.70
2022-09-20T06:22:37.477Z,9.70
2022-09-20T06:25:07.078Z,9.60
2022-09-20T06:27:34.819Z,9.60
2022-09-20T06:30:02.131Z,9.60
2022-09-20T06:32:28.704Z,9.70
2022-09-20T06:34:55.295Z,9.70
2022-09-20T06:37:52.704Z,9.70
2022-09-20T06:40:43.814Z,9.90
2022-09-20T06:43:14.416Z,9.90
2022-09-20T06:45:41.730Z,10.00
2022-09-20T06:48:09.628Z,10.10
2022-09-20T06:50:36.384Z,10.10
2022-09-20T06:53:02.915Z,10.20
2022-09-20T06:55:30.681Z,10.10
2022-09-20T06:57:57.235Z,10.10
2022-09-20T07:00:24.349Z,10.10
2022-09-20T07:02:50.944Z,10.20
2022-09-20T07:05:17.516Z,10.20
2022-09-20T07:07:44.196Z,10.20
2022-09-20T07:10:11.528Z,10.20
2022-09-20T07:12:38.070Z,10.20
2022-09-20T07:15:06.188Z,10.10
2022-09-20T07:17:33.777Z,10.20
2022-09-20T07:20:00.400Z,10.30
2022-09-20T07:22:27.297Z,10.50
2022-09-20T07:24:53.831Z,10.60
2022-09-20T07:27:21.220Z,10.70
2022-09-20T07:29:47.743Z,10.80
2022-09-20T07:32:15.362Z,11.00
2022-09-20T07:34:41.891Z,11.60
2022-09-20T07:37:08.427Z,11.90
2022-09-20T07:39:34.946Z,12.00
2022-09-20T07:42:06.012Z,11.90
2022-09-20T07:44:32.558Z,11.80
2022-09-20T07:46:59.540Z,11.80
2022-09-20T07:49:26.536Z,11.80
2022-09-20T07:51:53.142Z,12.00
2022-09-20T07:54:19.769Z,12.10
2022-09-20T07:56:46.311Z,12.00
2022-09-20T07:59:13.597Z,11.90
2022-09-20T08:01:40.292Z,11.80
2022-09-20T08:04:07.255Z,11.70
2022-09-20T08:06:35.760Z,11.70
2022-09-20T08:09:02.300Z,11.60
2022-09-20T08:11:30.119Z,11.60
2022-09-20T08:14:06.027Z,11.60
2022-09-20T08:16:36.414Z,11.80
2022-09-20T08:19:02.991Z,12.10
2022-09-20T08:21:33.031Z,12.30
2022-09-20T08:23:59.708Z,12.50
2022-09-20T08:26:26.902Z,12.70
2022-09-20T08:28:56.774Z,12.80
2022-09-20T08:31:26.904Z,12.80
2022-09-20T08:33:54.182Z,12.80
2022-09-20T08:36:22.004Z,12.80
2022-09-20T08:41:43.519Z,12.60
2022-09-20T08:44:26.901Z,12.40
2022-09-20T08:47:06.155Z,12.30
2022-09-20T08:49:32.725Z,12.20
2022-09-20T08:51:59.337Z,12.20
2022-09-20T08:54:26.120Z,12.20
2022-09-20T08:56:52.752Z,12.20
2022-09-20T08:59:20.035Z,12.40
2022-09-20T09:01:47.030Z,12.90
2022-09-20T09:04:23.439Z,13.20
2022-09-20T09:06:50.910Z,13.40
2022-09-20T09:09:18.951Z,13.60
2022-09-20T09:11:46.119Z,13.60
2022-09-20T09:14:47.672Z,13.80
2022-09-20T09:17:15.501Z,14.10
2022-09-20T09:20:07.184Z,14.20
2022-09-20T09:22:43.964Z,14.60
2022-09-20T09:25:23.080Z,14.90
2022-09-20T09:28:03.228Z,14.90
2022-09-20T09:30:31.230Z,14.70
2022-09-20T09:33:16.492Z,14.70
2022-09-20T09:35:43.257Z,14.50
2022-09-20T09:38:19.502Z,14.40
2022-09-20T09:40:50.087Z,14.30
2022-09-20T09:43:20.236Z,14.50
2022-09-20T09:45:46.790Z,14.80
2022-09-20T09:48:23.674Z,15.20
2022-09-20T09:50:50.485Z,15.30
2022-09-20T09:53:18.549Z,15.20
2022-09-20T09:55:57.982Z,15.10
2022-09-20T09:58:28.349Z,15.00
2022-09-20T10:00:54.917Z,15.00
2022-09-20T10:03:21.461Z,15.20
2022-09-20T10:05:47.936Z,15.00
2022-09-20T10:08:20.152Z,14.70
2022-09-20T10:11:06.879Z,14.40
2022-09-20T10:13:40.734Z,14.20
2022-09-20T10:16:10.417Z,14.10
2022-09-20T10:18:40.624Z,14.00
2022-09-20T10:21:16.968Z,14.00
2022-09-20T10:24:04.297Z,14.20
2022-09-20T10:26:51.116Z,14.30
2022-09-20T10:29:27.869Z,14.50
2022-09-20T10:32:06.723Z,14.70
2022-09-20T10:34:39.443Z,14.90
2022-09-20T10:37:08.071Z,15.30
2022-09-20T10:39:35.141Z,15.70
2022-09-20T10:42:27.555Z,16.20
2022-09-20T10:44:54.095Z,16.40
2022-09-20T10:47:22.624Z,16.70
2022-09-20T10:49:56.349Z,16.80
2022-09-20T10:52:22.839Z,16.80
2022-09-20T10:54:58.625Z,16.70
2022-09-20T10:57:45.905Z,16.30
2022-09-20T11:00:20.528Z,16.00
2022-09-20T11:02:53.060Z,15.50
2022-09-20T11:05:25.725Z,15.00
2022-09-20T11:08:00.818Z,14.70
2022-09-20T11:10:45.008Z,14.90
2022-09-20T11:13:15.709Z,15.30
2022-09-20T11:15:44.581Z,15.40
2022-09-20T11:18:12.751Z,15.30
2022-09-20T11:20:44.326Z,15.10
2022-09-20T11:23:13.215Z,15.00
2022-09-20T11:25:47.168Z,14.90
2022-09-20T11:28:15.635Z,15.00
2022-09-20T11:30:49.251Z,15.20
2022-09-20T11:33:24.618Z,15.40
2022-09-20T11:36:01.308Z,15.40
2022-09-20T11:38:40.196Z,15.40
2022-09-20T11:41:17.028Z,15.60
2022-09-20T11:43:45.942Z,16.00
2022-09-20T11:46:13.505Z,16.10
2022-09-20T11:48:44.092Z,16.10
2022-09-20T11:51:32.881Z,16.30
2022-09-20T11:54:16.014Z,16.60
2022-09-20T11:56:48.768Z,16.90
2022-09-20T11:59:28.147Z,17.10
2022-09-20T12:01:55.138Z,16.90
2022-09-20T12:04:39.028Z,16.80
2022-09-20T12:07:10.644Z,16.60
2022-09-20T12:09:40.653Z,16.80
2022-09-20T12:12:14.462Z,16.90
2022-09-20T12:14:42.170Z,16.90
2022-09-20T12:17:28.630Z,16.80
2022-09-20T12:19:55.170Z,17.00
2022-09-20T12:22:28.367Z,17.40
2022-09-20T12:25:13.682Z,17.60
2022-09-20T12:27:40.204Z,17.50
2022-09-20T12:30:18.174Z,17.40
2022-09-20T12:32:45.845Z,17.40
2022-09-20T12:35:31.121Z,17.30
2022-09-20T12:37:57.680Z,17.50
2022-09-20T12:40:25.919Z,17.80
2022-09-20T12:42:56.706Z,17.50
2022-09-20T12:45:23.257Z,17.40
2022-09-20T12:47:51.208Z,17.40
2022-09-20T12:50:36.516Z,17.30
2022-09-20T12:53:07.064Z,17.10
2022-09-20T12:55:33.743Z,16.90
2022-09-20T12:58:02.167Z,17.10
2022-09-20T13:00:31.998Z,17.20
2022-09-20T13:02:59.045Z,17.30
2022-09-20T13:05:33.444Z,17.00
2022-09-20T13:08:05.287Z,16.80
2022-09-20T13:10:33.699Z,16.70
2022-09-20T13:13:04.753Z,16.60
2022-09-20T13:15:33.123Z,16.40
2022-09-20T13:18:00.735Z,16.30
2022-09-20T13:20:30.980Z,16.50
2022-09-20T13:23:00.307Z,17.00
2022-09-20T13:25:28.402Z,17.60
2022-09-20T13:28:08.891Z,18.00
2022-09-20T13:30:35.508Z,17.80
2022-09-20T13:33:15.337Z,17.30
2022-09-20T13:35:41.964Z,16.80
2022-09-20T13:38:09.169Z,16.50
2022-09-20T13:40:39.683Z,16.40
2022-09-20T13:43:23.085Z,16.10
2022-09-20T13:45:52.162Z,16.00
2022-09-20T13:48:18.760Z,16.00
2022-09-20T13:50:49.052Z,16.10
2022-09-20T13:53:39.323Z,15.70
2022-09-20T13:56:09.015Z,15.00
2022-09-20T13:58:35.701Z,14.40
2022-09-20T14:01:03.191Z,14.00
2022-09-20T14:03:29.985Z,13.50
2022-09-20T14:05:58.252Z,13.20
2022-09-20T14:08:26.053Z,13.10
2022-09-20T14:11:06.251Z,12.90
2022-09-20T14:13:35.419Z,12.90
2022-09-20T14:16:02.089Z,12.80
2022-09-20T14:18:28.839Z,12.70
2022-09-20T14:20:55.406Z,12.70
2022-09-20T14:23:22.590Z,12.60
2022-09-20T14:26:08.002Z,12.60
2022-09-20T14:28:34.602Z,12.60
2022-09-20T14:31:14.410Z,12.70
2022-09-20T14:33:41.550Z,13.00
2022-09-20T14:36:15.347Z,13.20
2022-09-20T14:38:45.118Z,13.50
2022-09-20T14:41:12.163Z,13.60
2022-09-20T14:43:38.705Z,13.80
2022-09-20T14:46:06.696Z,14.00
2022-09-20T14:48:33.469Z,14.10
2022-09-20T14:51:09.991Z,14.30
2022-09-20T14:53:38.185Z,14.40
2022-09-20T14:56:04.840Z,14.60
2022-09-20T14:58:31.409Z,14.90
2022-09-20T15:01:01.132Z,15.10
2022-09-20T15:03:32.375Z,15.30
2022-09-20T15:05:58.901Z,15.20
2022-09-20T15:08:25.683Z,15.20
2022-09-20T15:10:52.261Z,15.20
2022-09-20T15:13:18.856Z,15.50
2022-09-20T15:15:46.635Z,15.80
2022-09-20T15:18:17.499Z,15.90
2022-09-20T15:20:44.033Z,16.00
2022-09-20T15:23:10.585Z,16.10
2022-09-20T15:25:37.156Z,16.10
2022-09-20T15:28:04.052Z,16.00
2022-09-20T15:30:30.605Z,15.90
2022-09-20T15:33:02.237Z,16.00
2022-09-20T15:35:29.481Z,15.80
2022-09-20T15:37:56.015Z,15.80
2022-09-20T15:40:22.590Z,15.80
2022-09-20T15:42:49.169Z,15.80
2022-09-20T15:45:15.727Z,15.80
2022-09-20T15:47:42.273Z,15.90
2022-09-20T15:50:09.100Z,15.80
2022-09-20T15:52:36.110Z,15.70
2022-09-20T15:55:03.766Z,15.60
2022-09-20T15:57:31.096Z,15.50
2022-09-20T15:59:58.671Z,15.40
2022-09-20T16:02:25.339Z,15.20
2022-09-20T16:04:54.655Z,15.10
2022-09-20T16:07:28.006Z,14.90
2022-09-20T16:09:54.878Z,14.80
2022-09-20T16:12:21.884Z,14.70
2022-09-20T16:14:48.411Z,14.70
2022-09-20T16:17:15.044Z,14.50
2022-09-20T16:19:42.351Z,14.50
2022-09-20T16:22:08.963Z,14.30
2022-09-20T16:24:35.943Z,14.30
2022-09-20T16:27:03.266Z,14.20
2022-09-20T16:29:30.328Z,14.20
2022-09-20T16:31:57.477Z,14.30
2022-09-20T16:34:31.340Z,14.20
2022-09-20T16:36:59.359Z,14.20
2022-09-20T16:39:27.664Z,14.10
2022-09-20T16:41:55.051Z,14.00
2022-09-20T16:44:21.600Z,13.90
2022-09-20T16:46:48.133Z,13.90
2022-09-20T16:49:15.343Z,13.90
2022-09-20T16:51:42.834Z,13.90
2022-09-20T16:54:13.168Z,13.90
2022-09-20T16:56:40.416Z,13.90
2022-09-20T16:59:07.432Z,13.90
2022-09-20T17:01:34.386Z,13.90
2022-09-20T17:04:05.304Z,13.60
2022-09-20T17:06:32.292Z,13.10
2022-09-20T17:08:59.269Z,12.70
2022-09-20T17:11:29.708Z,12.40
2022-09-20T17:13:57.098Z,12.20
2022-09-20T17:16:24.595Z,11.90
2022-09-20T17:18:52.571Z,11.60
2022-09-20T17:21:19.116Z,11.40
2022-09-20T17:23:50.184Z,11.30
2022-09-20T17:26:18.748Z,11.30
2022-09-20T17:28:47.929Z,11.20
2022-09-20T17:31:18.155Z,11.20
2022-09-20T17:33:45.750Z,11.20
2022-09-20T17:36:13.128Z,11.10
2022-09-20T17:38:39.791Z,11.10
2022-09-20T17:41:10.019Z,11.00
2022-09-20T17:43:37.376Z,11.00
2022-09-20T17:46:05.315Z,10.90
2022-09-20T17:48:34.108Z,10.90
2022-09-20T17:51:01.546Z,10.90
2022-09-20T17:53:28.099Z,10.80
2022-09-20T17:55:54.900Z,10.80
2022-09-20T17:58:21.709Z,10.80
2022-09-20T18:00:48.347Z,10.80
2022-09-20T18:03:15.274Z,10.90
2022-09-20T18:05:41.956Z,10.90
2022-09-20T18:08:08.647Z,10.90
2022-09-20T18:10:35.181Z,10.90
2022-09-20T18:13:01.791Z,10.90
2022-09-20T18:15:28.329Z,10.90
2022-09-20T18:17:55.444Z,10.90
2022-09-20T18:20:22.037Z,10.90
2022-09-20T18:22:48.588Z,10.90
2022-09-20T18:25:15.118Z,10.80
2022-09-20T18:27:42.252Z,10.80
2022-09-20T18:30:09.017Z,10.80
2022-09-20T18:32:35.572Z,10.80
2022-09-20T18:35:02.702Z,10.80
2022-09-20T18:37:30.644Z,10.70
2022-09-20T18:39:57.299Z,10.70
2022-09-20T18:42:23.953Z,10.70
2022-09-20T18:44:50.545Z,10.70
2022-09-20T18:47:17.088Z,10.70
2022-09-20T18:49:43.632Z,10.60
2022-09-20T18:52:12.166Z,10.60
2022-09-20T18:54:39.020Z,10.70
2022-09-20T18:57:05.688Z,10.70
2022-09-20T18:59:32.276Z,10.70
2022-09-20T19:01:58.897Z,10.60
2022-09-20T19:04:28.305Z,10.70
2022-09-20T19:06:57.694Z,10.70
2022-09-20T19:09:24.663Z,10.70
2022-09-20T19:11:55.223Z,10.70
2022-09-20T19:14:22.457Z,10.70
2022-09-20T19:16:49.487Z,10.70
2022-09-20T19:19:33.805Z,10.70
2022-09-20T19:22:15.718Z,10.70
2022-09-20T19:24:48.480Z,10.60
2022-09-20T19:27:15.020Z,10.60
2022-09-20T19:29:41.732Z,10.60
2022-09-20T19:32:16.334Z,10.60
2022-09-20T19:34:43.187Z,10.60
2022-09-20T19:37:22.734Z,10.60
2022-09-20T19:40:01.498Z,10.60
2022-09-20T19:42:38.888Z,10.50
2022-09-20T19:45:10.249Z,10.50
2022-09-20T19:47:49.094Z,10.50
2022-09-20T19:50:18.294Z,10.50
2022-09-20T19:52:44.928Z,10.50
2022-09-20T19:55:12.471Z,10.40
2022-09-20T19:57:42.131Z,10.40
2022-09-20T20:00:14.481Z,10.40
2022-09-20T20:02:41.914Z,10.40
2022-09-20T20:05:10.944Z,10.40
2022-09-20T20:07:59.561Z,10.30
2022-09-20T20:10:28.037Z,10.30
2022-09-20T20:12:56.813Z,10.20
2022-09-20T20:15:29.107Z,10.10
2022-09-20T20:18:16.595Z,10.00
2022-09-20T20:20:47.585Z,9.90
2022-09-20T20:23:32.768Z,9.90
2022-09-20T20:26:06.048Z,9.80
2022-09-20T20:28:32.605Z,9.80
2022-09-20T20:31:00.732Z,9.70
2022-09-20T20:33:27.440Z,9.60
2022-09-20T20:35:57.867Z,9.50
2022-09-20T20:38:26.333Z,9.40
2022-09-20T20:41:03.878Z,9.40
2022-09-20T20:43:35.009Z,9.50
2022-09-20T20:46:01.954Z,9.50
2022-09-20T20:48:28.891Z,9.40
2022-09-20T20:51:05.446Z,9.40
2022-09-20T20:53:32.439Z,9.40
2022-09-20T20:56:07.134Z,9.30
2022-09-20T20:58:34.213Z,9.20
2022-09-20T21:01:17.050Z,9.20
2022-09-20T21:03:45.831Z,9.20
2022-09-20T21:06:13.047Z,9.10
2022-09-20T21:08:40.200Z,9.10
2022-09-20T21:11:11.547Z,9.10
2022-09-20T21:13:39.284Z,9.00
2022-09-20T21:16:06.911Z,8.90
2022-09-20T21:18:33.947Z,8.70
2022-09-20T21:21:00.767Z,8.60
2022-09-20T21:23:27.324Z,8.50
2022-09-20T21:26:00.977Z,8.40
2022-09-20T21:28:27.515Z,8.40
2022-09-20T21:30:59.432Z,8.30
2022-09-20T21:33:30.960Z,8.20
2022-09-20T21:36:00.497Z,8.20
2022-09-20T21:38:28.446Z,8.20
2022-09-20T21:41:30.531Z,8.20
2022-09-20T21:43:57.799Z,8.10
2022-09-20T21:46:31.022Z,8.10
2022-09-20T21:48:58.257Z,8.00
2022-09-20T21:51:25.098Z,8.00
2022-09-20T21:53:56.464Z,8.00
2022-09-20T21:56:23.116Z,7.90
2022-09-20T21:58:49.673Z,8.00
2022-09-20T22:01:20.005Z,8.00
2022-09-20T22:03:47.286Z,7.90
2022-09-20T22:06:17.911Z,7.80
2022-09-20T22:08:48.564Z,7.80
2022-09-20T22:11:15.729Z,7.80
2022-09-20T22:13:46.113Z,7.90
2022-09-20T22:16:13.608Z,8.00
2022-09-20T22:18:41.687Z,8.00
2022-09-20T22:21:09.398Z,7.90
2022-09-20T22:23:36.058Z,7.90
2022-09-20T22:26:03.365Z,7.80
2022-09-20T22:28:29.931Z,7.70
2022-09-20T22:30:56.496Z,7.60
2022-09-20T22:33:23.040Z,7.50
2022-09-20T22:35:49.594Z,7.40
2022-09-20T22:38:16.259Z,7.40
2022-09-20T22:40:51.385Z,7.30
2022-09-20T22:43:17.923Z,7.30
2022-09-20T22:45:44.640Z,7.20
2022-09-20T22:48:11.198Z,7.10
2022-09-20T22:50:37.731Z,7.20
2022-09-20T22:53:04.260Z,7.10
2022-09-20T22:55:31.156Z,7.10
2022-09-20T22:57:57.679Z,7.10
2022-09-20T23:00:24.221Z,7.00
2022-09-20T23:02:50.839Z,7.00
2022-09-20T23:05:18.142Z,7.00
2022-09-20T23:07:47.775Z,7.00
2022-09-20T23:10:14.316Z,7.00
2022-09-20T23:12:40.848Z,7.10
2022-09-20T23:15:08.037Z,7.00
2022-09-20T23:17:34.563Z,7.00
2022-09-20T23:20:01.146Z,7.00
2022-09-20T23:22:27.672Z,7.00
2022-09-20T23:24:54.217Z,7.00
2022-09-20T23:27:20.748Z,6.90
2022-09-20T23:29:47.294Z,7.00
2022-09-20T23:32:13.850Z,7.00
2022-09-20T23:34:40.383Z,6.90
2022-09-20T23:37:06.908Z,6.90
2022-09-20T23:39:33.451Z,6.90
2022-09-20T23:42:00.015Z,6.80
2022-09-20T23:44:26.575Z,6.80
2022-09-20T23:46:53.095Z,6.80
2022-09-20T23:49:19.655Z,6.70
2022-09-20T23:51:46.191Z,6.70
2022-09-20T23:54:12.741Z,6.60
2022-09-20T23:56:40.713Z,6.50
2022-09-20T23:59:07.295Z,6.40
